Ship Status Report: callsign BAREU51

sailwx.info

Track history (hours):
 
Tides and Currents Weather Stations Pressure Air Temp Water Temp Dewpoint Dewpoint Depression Visibility Wind Speed Wind Dir Waves Ship Positions

Callsign BAREU51 (name unknown)

Last reported at 2017-Jan-19 16:00 UTC. Time now 2017-Jan-20 01:45 UTC.
Position N 44°24' E 008°54'.

Barometer 1027.0 mb
Air temperature 8.7 ° C

Date/timePositionNaut miles runAvg speedWind from/ knotsBaromVisibWave heightAir tempDewpointWater temp
2017-Jan-19 16:00N 44°24' E 008°54'0 0.0 1027.0 8.7
2017-Jan-19 12:00N 44°24' E 008°54'0 0.0 1026.4 7.2
2017-Jan-17 16:00N 44°24' E 008°54'4 0.2 1015.6 6.3
2017-Jan-16 15:00N 44°24' E 009°00'1514.8 1012.6 6.1
2017-Jan-16 14:00N 44°12' E 009°12'1010.5 1009.3 6.4
2017-Jan-16 13:00N 44°06' E 009°00'1212.0 1012.6 7.1
2017-Jan-16 12:00N 44°18' E 009°00'6 0.4 1011.7 6.2
2017-Jan-15 20:00N 44°24' E 009°00'1312.7 1016.3 7.9
2017-Jan-15 19:00N 44°12' E 009°06'1817.6 1015.2 8.4
2017-Jan-15 18:00N 44°00' E 009°24'2525.0 1014.3 8.6
2017-Jan-15 17:00N 43°42' E 009°48'2222.2 1013.4 9.2
2017-Jan-15 16:00N 43°24' E 010°06'1918.5 1011.2 8.9
2017-Jan-15 15:00N 43°06' E 010°00'2424.4 1009.5 9.2
2017-Jan-15 14:00N 42°42' E 010°06'1817.9 1009.4 8.8
2017-Jan-15 13:00N 42°30' E 010°24'2222.4 1008.1 9.2
2017-Jan-15 12:00N 42°12' E 010°42'2525.3 1006.8 9.0
2017-Jan-15 11:00N 41°54' E 011°06'2020.1 1008.5 8.1
2017-Jan-15 10:00N 41°36' E 011°18'2020.1 1008.2 5.4
2017-Jan-15 09:00N 41°18' E 011°30'2424.4 1007.3 6.1
2017-Jan-15 08:00N 40°54' E 011°36'2020.2 1007.4 8.0
2017-Jan-15 07:00N 40°36' E 011°48'2625.7 1007.3 7.9
2017-Jan-15 06:00N 40°12' E 012°00'2827.7 1007.4 8.0-5.3
2017-Jan-15 05:00N 39°48' E 012°18'2020.2 1007.1 8.8
2017-Jan-15 04:00N 39°30' E 012°30'2827.7 1006.2 10.3
2017-Jan-15 03:00N 39°06' E 012°48'2020.3 1006.6 10.5
2017-Jan-15 02:00N 38°48' E 013°00'2625.8 1009.3 11.4
2017-Jan-15 01:00N 38°24' E 013°12'2020.3 1011.0 10.5
2017-Jan-15 00:00N 38°06' E 013°24'0 0.0 1012.9 9.4
2017-Jan-14 18:00N 38°06' E 013°24'1212.0 1014.4 9.6
2017-Jan-14 17:00N 38°18' E 013°24'2322.9 1013.4 11.9
2017-Jan-14 16:00N 38°36' E 013°06'2322.8 1013.4 11.5
2017-Jan-14 15:00N 38°54' E 012°48'2020.3 1013.2 11.6
2017-Jan-14 14:00N 39°12' E 012°36'2827.7 1012.4 11.1
2017-Jan-14 13:00N 39°36' E 012°18'3030.3 1011.9 12.2
2017-Jan-14 12:00N 40°00' E 011°54'2322.7 1012.2 12.3
2017-Jan-14 11:00N 40°18' E 011°36'3030.2 1012.3 11.7
2017-Jan-14 10:00N 40°42' E 011°12'2322.6 1012.5 12.1
2017-Jan-14 09:00N 41°00' E 010°54'2322.5 1012.0 11.2
2017-Jan-14 08:00N 41°18' E 010°36'2222.5 1011.4 11.5
2017-Jan-14 07:00N 41°36' E 010°18'2222.5 1010.6 10.6
2017-Jan-14 06:00N 41°54' E 010°00'1818.0 1009.6 10.7
2017-Jan-14 05:00N 42°12' E 010°00'2424.4 1008.7 10.4
2017-Jan-14 04:00N 42°36' E 009°54'2424.4 1008.6 10.7
2017-Jan-14 03:00N 43°00' E 010°00'2020.0 1008.1 10.6
2017-Jan-14 02:00N 43°18' E 009°48'2222.2 1008.5 10.0
2017-Jan-14 01:00N 43°36' E 009°30'2222.2 1008.2 9.4
2017-Jan-14 00:00N 43°54' E 009°12'2020.0 1008.1 8.9
2017-Jan-13 23:00N 44°12' E 009°00'13 6.4 1007.6 7.9
2017-Jan-13 21:00N 44°24' E 008°54'4 0.2 1006.6 7.1
2017-Jan-12 20:00N 44°24' E 009°00'2019.9 1013.0 11.7
2017-Jan-12 19:00N 44°06' E 009°12'2727.3 1013.6 12.4
2017-Jan-12 18:00N 43°42' E 009°30'3029.6 1014.4 13.0
2017-Jan-12 17:00N 43°18' E 009°54'2424.4 1016.8 12.3
2017-Jan-12 16:00N 42°54' E 010°00'2020.0 1015.4 11.7
2017-Jan-12 15:00N 42°36' E 010°12'2121.4 1016.8 11.9
2017-Jan-12 14:00N 42°24' E 010°36'2020.1 1016.8 13.6
2017-Jan-12 13:00N 42°06' E 010°48'2020.1 1017.0 13.3
2017-Jan-12 12:00N 41°48' E 011°00'2020.1 1017.0 13.8
2017-Jan-12 11:00N 41°30' E 011°12'1312.8 1020.2 14.2
2017-Jan-12 10:00N 41°18' E 011°18'1515.0 1020.5 12.2
2017-Jan-12 09:00N 41°06' E 011°30'1312.8 1021.1 13.0
2017-Jan-12 08:00N 40°54' E 011°36'1312.8 1020.6 12.4
2017-Jan-12 07:00N 40°42' E 011°42'2827.6 1020.6 12.3
2017-Jan-12 06:00N 40°18' E 012°00'2020.2 1020.6 12.3
2017-Jan-12 05:00N 40°00' E 012°12'2625.7 1021.0 11.6
2017-Jan-12 04:00N 39°36' E 012°24'2322.7 1021.9 10.9
2017-Jan-12 03:00N 39°18' E 012°42'2625.7 1022.9 10.0
2017-Jan-12 02:00N 38°54' E 012°54'2625.8 1023.3 9.7
2017-Jan-12 01:00N 38°30' E 013°06'2322.9 1023.2 9.9
2017-Jan-12 00:00N 38°12' E 013°24'0 0.0 1023.0 9.4
2017-Jan-11 18:00N 38°12' E 013°24'2322.9 1020.1 10.7
2017-Jan-11 17:00N 38°30' E 013°06'2625.8 1019.6 9.9
2017-Jan-11 16:00N 38°54' E 012°54'1918.6 1018.9 9.4
2017-Jan-11 15:00N 39°12' E 012°48'2625.7 1018.3 9.3
2017-Jan-11 14:00N 39°36' E 012°36'2424.4 1018.2 9.3
2017-Jan-11 13:00N 40°00' E 012°30'2020.2 1017.7 9.3
2017-Jan-11 12:00N 40°18' E 012°18'2322.6 1017.3 9.2
2017-Jan-11 11:00N 40°36' E 012°00'2625.7 1017.9 9.2
2017-Jan-11 10:00N 41°00' E 011°48'2322.5 1018.0 6.9
2017-Jan-11 09:00N 41°18' E 011°30'2222.5 1017.7 6.6
2017-Jan-11 08:00N 41°36' E 011°12'2222.5 1016.1 5.3
2017-Jan-11 07:00N 41°54' E 010°54'2222.4 1013.9 4.7
2017-Jan-11 06:00N 42°12' E 010°36'2222.4 1016.1 4.2
2017-Jan-11 05:00N 42°30' E 010°18'2222.3 1014.4 4.1
2017-Jan-11 04:00N 42°48' E 010°00'2424.4 1014.8 4.2
2017-Jan-11 03:00N 43°12' E 009°54'2020.0 1013.3 3.8
2017-Jan-11 02:00N 43°30' E 009°42'2222.2 1013.1 4.9
2017-Jan-11 01:00N 43°48' E 009°24'2222.2 1013.6 6.2
2017-Jan-11 00:00N 44°06' E 009°06'19 3.1 1013.5 5.7
2017-Jan-10 18:00N 44°24' E 009°00'2019.9 1009.9 3.5
2017-Jan-10 17:00N 44°06' E 009°12'2222.2 1009.0 7.9
2017-Jan-10 16:00N 43°48' E 009°30'2625.5 1009.5 7.4
2017-Jan-10 15:00N 43°24' E 009°42'2222.3 1008.3 7.4
2017-Jan-10 14:00N 43°06' E 010°00'1818.0 1007.2 7.8
2017-Jan-10 13:00N 42°48' E 010°00'2525.2 1006.9 8.6
2017-Jan-10 12:00N 42°30' E 010°24'2222.4 1008.7 7.6
2017-Jan-10 11:00N 42°12' E 010°42'2525.3 1009.4 8.4
2017-Jan-10 10:00N 41°54' E 011°06'2222.5 1009.9 8.5
2017-Jan-10 09:00N 41°36' E 011°24'1515.0 1010.6 8.9
2017-Jan-10 08:00N 41°24' E 011°36'2525.5 1010.9 8.7
2017-Jan-10 07:00N 41°06' E 012°00'2625.7 1011.1 9.5
2017-Jan-10 06:00N 40°42' E 012°12'2322.6 1011.6 9.8
2017-Jan-10 05:00N 40°24' E 012°30'2625.7 1011.7 9.9
2017-Jan-10 04:00N 40°00' E 012°42'2625.7 1012.1 9.9
2017-Jan-10 03:00N 39°36' E 012°54'2020.2 1013.2 9.7
2017-Jan-10 02:00N 39°18' E 013°06'2827.8 1014.0 9.7
2017-Jan-10 01:00N 38°54' E 013°24'2424.0 1015.3 8.5
2017-Jan-10 00:00N 38°30' E 013°24'2424.0 1015.6 9.6
2017-Jan-09 23:00N 38°06' E 013°24'   1017.2 8.1
Track history (hours):
 
Tides and Currents Weather Stations Pressure Air Temp Water Temp Dewpoint Dewpoint Depression Visibility Wind Speed Wind Dir Waves Ship Positions

Callsign BAREU51 (name unknown)

Last reported at 2017-Jan-19 16:00 UTC. Time now 2017-Jan-20 01:45 UTC.
Position N 44°24' E 008°54'.

Barometer 1027.0 mb
Air temperature 8.7 ° C

Date/timePositionNaut miles runAvg speedWind from/ knotsBaromVisibWave heightAir tempDewpointWater temp
2017-Jan-19 16:00N 44°24' E 008°54'0 0.0 1027.0 8.7
2017-Jan-19 12:00N 44°24' E 008°54'0 0.0 1026.4 7.2
2017-Jan-17 16:00N 44°24' E 008°54'4 0.2 1015.6 6.3
2017-Jan-16 15:00N 44°24' E 009°00'1514.8 1012.6 6.1
2017-Jan-16 14:00N 44°12' E 009°12'1010.5 1009.3 6.4
2017-Jan-16 13:00N 44°06' E 009°00'1212.0 1012.6 7.1
2017-Jan-16 12:00N 44°18' E 009°00'6 0.4 1011.7 6.2
2017-Jan-15 20:00N 44°24' E 009°00'1312.7 1016.3 7.9
2017-Jan-15 19:00N 44°12' E 009°06'1817.6 1015.2 8.4
2017-Jan-15 18:00N 44°00' E 009°24'2525.0 1014.3 8.6
2017-Jan-15 17:00N 43°42' E 009°48'2222.2 1013.4 9.2
2017-Jan-15 16:00N 43°24' E 010°06'1918.5 1011.2 8.9
2017-Jan-15 15:00N 43°06' E 010°00'2424.4 1009.5 9.2
2017-Jan-15 14:00N 42°42' E 010°06'1817.9 1009.4 8.8
2017-Jan-15 13:00N 42°30' E 010°24'2222.4 1008.1 9.2
2017-Jan-15 12:00N 42°12' E 010°42'2525.3 1006.8 9.0
2017-Jan-15 11:00N 41°54' E 011°06'2020.1 1008.5 8.1
2017-Jan-15 10:00N 41°36' E 011°18'2020.1 1008.2 5.4
2017-Jan-15 09:00N 41°18' E 011°30'2424.4 1007.3 6.1
2017-Jan-15 08:00N 40°54' E 011°36'2020.2 1007.4 8.0
2017-Jan-15 07:00N 40°36' E 011°48'2625.7 1007.3 7.9
2017-Jan-15 06:00N 40°12' E 012°00'2827.7 1007.4 8.0-5.3
2017-Jan-15 05:00N 39°48' E 012°18'2020.2 1007.1 8.8
2017-Jan-15 04:00N 39°30' E 012°30'2827.7 1006.2 10.3
2017-Jan-15 03:00N 39°06' E 012°48'2020.3 1006.6 10.5
2017-Jan-15 02:00N 38°48' E 013°00'2625.8 1009.3 11.4
2017-Jan-15 01:00N 38°24' E 013°12'2020.3 1011.0 10.5
2017-Jan-15 00:00N 38°06' E 013°24'0 0.0 1012.9 9.4
2017-Jan-14 18:00N 38°06' E 013°24'1212.0 1014.4 9.6
2017-Jan-14 17:00N 38°18' E 013°24'2322.9 1013.4 11.9
2017-Jan-14 16:00N 38°36' E 013°06'2322.8 1013.4 11.5
2017-Jan-14 15:00N 38°54' E 012°48'2020.3 1013.2 11.6
2017-Jan-14 14:00N 39°12' E 012°36'2827.7 1012.4 11.1
2017-Jan-14 13:00N 39°36' E 012°18'3030.3 1011.9 12.2
2017-Jan-14 12:00N 40°00' E 011°54'2322.7 1012.2 12.3
2017-Jan-14 11:00N 40°18' E 011°36'3030.2 1012.3 11.7
2017-Jan-14 10:00N 40°42' E 011°12'2322.6 1012.5 12.1
2017-Jan-14 09:00N 41°00' E 010°54'2322.5 1012.0 11.2
2017-Jan-14 08:00N 41°18' E 010°36'2222.5 1011.4 11.5
2017-Jan-14 07:00N 41°36' E 010°18'2222.5 1010.6 10.6
2017-Jan-14 06:00N 41°54' E 010°00'1818.0 1009.6 10.7
2017-Jan-14 05:00N 42°12' E 010°00'2424.4 1008.7 10.4
2017-Jan-14 04:00N 42°36' E 009°54'2424.4 1008.6 10.7
2017-Jan-14 03:00N 43°00' E 010°00'2020.0 1008.1 10.6
2017-Jan-14 02:00N 43°18' E 009°48'2222.2 1008.5 10.0
2017-Jan-14 01:00N 43°36' E 009°30'2222.2 1008.2 9.4
2017-Jan-14 00:00N 43°54' E 009°12'2020.0 1008.1 8.9
2017-Jan-13 23:00N 44°12' E 009°00'13 6.4 1007.6 7.9
2017-Jan-13 21:00N 44°24' E 008°54'4 0.2 1006.6 7.1
2017-Jan-12 20:00N 44°24' E 009°00'2019.9 1013.0 11.7
2017-Jan-12 19:00N 44°06' E 009°12'2727.3 1013.6 12.4
2017-Jan-12 18:00N 43°42' E 009°30'3029.6 1014.4 13.0
2017-Jan-12 17:00N 43°18' E 009°54'2424.4 1016.8 12.3
2017-Jan-12 16:00N 42°54' E 010°00'2020.0 1015.4 11.7
2017-Jan-12 15:00N 42°36' E 010°12'2121.4 1016.8 11.9
2017-Jan-12 14:00N 42°24' E 010°36'2020.1 1016.8 13.6
2017-Jan-12 13:00N 42°06' E 010°48'2020.1 1017.0 13.3
2017-Jan-12 12:00N 41°48' E 011°00'2020.1 1017.0 13.8
2017-Jan-12 11:00N 41°30' E 011°12'1312.8 1020.2 14.2
2017-Jan-12 10:00N 41°18' E 011°18'1515.0 1020.5 12.2
2017-Jan-12 09:00N 41°06' E 011°30'1312.8 1021.1 13.0
2017-Jan-12 08:00N 40°54' E 011°36'1312.8 1020.6 12.4
2017-Jan-12 07:00N 40°42' E 011°42'2827.6 1020.6 12.3
2017-Jan-12 06:00N 40°18' E 012°00'2020.2 1020.6 12.3
2017-Jan-12 05:00N 40°00' E 012°12'2625.7 1021.0 11.6
2017-Jan-12 04:00N 39°36' E 012°24'2322.7 1021.9 10.9
2017-Jan-12 03:00N 39°18' E 012°42'2625.7 1022.9 10.0
2017-Jan-12 02:00N 38°54' E 012°54'2625.8 1023.3 9.7
2017-Jan-12 01:00N 38°30' E 013°06'2322.9 1023.2 9.9
2017-Jan-12 00:00N 38°12' E 013°24'0 0.0 1023.0 9.4
2017-Jan-11 18:00N 38°12' E 013°24'2322.9 1020.1 10.7
2017-Jan-11 17:00N 38°30' E 013°06'2625.8 1019.6 9.9
2017-Jan-11 16:00N 38°54' E 012°54'1918.6 1018.9 9.4
2017-Jan-11 15:00N 39°12' E 012°48'2625.7 1018.3 9.3
2017-Jan-11 14:00N 39°36' E 012°36'2424.4 1018.2 9.3
2017-Jan-11 13:00N 40°00' E 012°30'2020.2 1017.7 9.3
2017-Jan-11 12:00N 40°18' E 012°18'2322.6 1017.3 9.2
2017-Jan-11 11:00N 40°36' E 012°00'2625.7 1017.9 9.2
2017-Jan-11 10:00N 41°00' E 011°48'2322.5 1018.0 6.9
2017-Jan-11 09:00N 41°18' E 011°30'2222.5 1017.7 6.6
2017-Jan-11 08:00N 41°36' E 011°12'2222.5 1016.1 5.3
2017-Jan-11 07:00N 41°54' E 010°54'2222.4 1013.9 4.7
2017-Jan-11 06:00N 42°12' E 010°36'2222.4 1016.1 4.2
2017-Jan-11 05:00N 42°30' E 010°18'2222.3 1014.4 4.1
2017-Jan-11 04:00N 42°48' E 010°00'2424.4 1014.8 4.2
2017-Jan-11 03:00N 43°12' E 009°54'2020.0 1013.3 3.8
2017-Jan-11 02:00N 43°30' E 009°42'2222.2 1013.1 4.9
2017-Jan-11 01:00N 43°48' E 009°24'2222.2 1013.6 6.2
2017-Jan-11 00:00N 44°06' E 009°06'19 3.1 1013.5 5.7
2017-Jan-10 18:00N 44°24' E 009°00'2019.9 1009.9 3.5
2017-Jan-10 17:00N 44°06' E 009°12'2222.2 1009.0 7.9
2017-Jan-10 16:00N 43°48' E 009°30'2625.5 1009.5 7.4
2017-Jan-10 15:00N 43°24' E 009°42'2222.3 1008.3 7.4
2017-Jan-10 14:00N 43°06' E 010°00'1818.0 1007.2 7.8
2017-Jan-10 13:00N 42°48' E 010°00'2525.2 1006.9 8.6
2017-Jan-10 12:00N 42°30' E 010°24'2222.4 1008.7 7.6
2017-Jan-10 11:00N 42°12' E 010°42'2525.3 1009.4 8.4
2017-Jan-10 10:00N 41°54' E 011°06'2222.5 1009.9 8.5
2017-Jan-10 09:00N 41°36' E 011°24'1515.0 1010.6 8.9
2017-Jan-10 08:00N 41°24' E 011°36'2525.5 1010.9 8.7
2017-Jan-10 07:00N 41°06' E 012°00'2625.7 1011.1 9.5
2017-Jan-10 06:00N 40°42' E 012°12'2322.6 1011.6 9.8
2017-Jan-10 05:00N 40°24' E 012°30'2625.7 1011.7 9.9
2017-Jan-10 04:00N 40°00' E 012°42'2625.7 1012.1 9.9
2017-Jan-10 03:00N 39°36' E 012°54'2020.2 1013.2 9.7
2017-Jan-10 02:00N 39°18' E 013°06'2827.8 1014.0 9.7
2017-Jan-10 01:00N 38°54' E 013°24'2424.0 1015.3 8.5
2017-Jan-10 00:00N 38°30' E 013°24'2424.0 1015.6 9.6
2017-Jan-09 23:00N 38°06' E 013°24'   1017.2 8.1

Dump ship's entire track history